European Causeway — C6RG7 — position and weather

sailwx.info

Track history (hours):
 
Tides and Currents Weather Stations Pressure Air Temp Water Temp Dewpoint Dewpoint Depression Visibility Wind Speed Wind Dir Waves Ship Positions

European Causeway

Operator: P & O Irish Sea

Last reported at 2020-Apr-04 15:55 UTC. Time now 2020-Apr-05 05:51 UTC.
Position N 54°58' W 005°22'.

Length 145 m; draft 5.5 m.

Type: Passenger vessel. MMSI: 311027000.

Date/timePositionNaut miles runAvg speedWind from/ knotsBaromVisibWave heightAir tempDewpointWater temp
2020-Apr-04 15:55N 54°58' W 005°22'1617.5
2020-Apr-04 15:00N 54°51' W 005°48'0 0.1
2020-Apr-04 10:52N 54°51' W 005°48'713.6
2020-Apr-04 10:21N 54°55' W 005°38'818.3
2020-Apr-04 09:56N 54°58' W 005°25'15 1.6
2020-Apr-04 00:55N 54°51' W 005°48'7 1.3
2020-Apr-03 19:24N 54°54' W 005°37'14 4.4
2020-Apr-03 16:08N 55°00' W 005°15'13 4.1
2020-Apr-03 13:00N 54°55' W 005°35'3 1.7
2020-Apr-03 10:58N 54°54' W 005°41'5 1.0
2020-Apr-03 05:58N 54°51' W 005°48'0 0.0
2020-Apr-03 05:28N 54°51' W 005°48'0 0.0
2020-Apr-03 04:56N 54°51' W 005°48'2014.6
2020-Apr-03 03:33N 54°60' W 005°17'117.5
2020-Apr-03 03:30N 55°00' W 005°15'21 3.2
2020-Apr-02 20:53N 54°51' W 005°48'0 0.0
2020-Apr-02 15:30N 54°51' W 005°48'0 0.0
2020-Apr-02 13:06N 54°51' W 005°48'13 2.4
2020-Apr-02 07:39N 54°56' W 005°27'317.8
2020-Apr-02 07:29N 54°55' W 005°32'10 4.8
2020-Apr-02 05:23N 54°51' W 005°48'0 0.0
2020-Apr-01 22:56N 54°51' W 005°48'0 0.3
2020-Apr-01 22:29N 54°51' W 005°48'0 0.0
2020-Apr-01 21:26N 54°51' W 005°48'0 0.0
2020-Apr-01 21:00N 54°51' W 005°48'21 4.2
2020-Apr-01 16:10N 54°60' W 005°15'6 0.8
2020-Apr-01 07:44N 54°57' W 005°26'518.3
2020-Apr-01 07:27N 54°55' W 005°34'9 0.9
2020-Mar-31 21:44N 54°51' W 005°48'0 0.0
2020-Mar-31 20:49N 54°51' W 005°48'513.4
2020-Mar-31 20:27N 54°54' W 005°41'4 0.8
2020-Mar-31 15:34N 54°55' W 005°35'12 1.6
2020-Mar-31 08:03N 54°60' W 005°16'1318.5
2020-Mar-31 07:19N 54°54' W 005°37'7 8.7
2020-Mar-31 06:30N 54°51' W 005°48'0 0.0
2020-Mar-31 05:00N 54°51' W 005°48'610.0
2020-Mar-31 04:25N 54°54' W 005°39'0 0.1
2020-Mar-30 23:22N 54°54' W 005°40'6 2.2
2020-Mar-30 20:52N 54°51' W 005°48'9 2.0
2020-Mar-30 16:18N 54°55' W 005°34'9 4.8
2020-Mar-30 14:27N 54°51' W 005°48'12 2.7
2020-Mar-30 10:11N 54°56' W 005°30'11 5.8
2020-Mar-30 08:12N 54°51' W 005°48'21 5.4
2020-Mar-30 04:15N 55°00' W 005°14'21 8.6
2020-Mar-30 01:45N 54°51' W 005°48'0 0.0
2020-Mar-30 01:27N 54°51' W 005°48'20 3.9
2020-Mar-29 20:16N 55°00' W 005°16'2016.5
2020-Mar-29 19:02N 54°51' W 005°48'0 1.2
2020-Mar-29 19:00N 54°51' W 005°48'0 0.1
2020-Mar-29 17:53N 54°51' W 005°48'0 0.0
2020-Mar-29 17:28N 54°51' W 005°48'2115.7
2020-Mar-29 16:08N 55°00' W 005°15'12 3.7
2020-Mar-29 13:02N 54°54' W 005°32'915.6
2020-Mar-29 12:25N 54°51' W 005°48'0 0.0
2020-Mar-29 08:30N 54°51' W 005°48'11 0.9
2020-Mar-28 20:39N 54°55' W 005°31'4 0.3
2020-Mar-28 08:22N 54°54' W 005°38'6 3.4
2020-Mar-28 06:29N 54°51' W 005°48'0 0.0
2020-Mar-28 05:50N 54°51' W 005°48'15 3.0
2020-Mar-28 00:49N 54°57' W 005°24'8 2.3
2020-Mar-27 21:24N 54°55' W 005°37'7 1.4
2020-Mar-27 16:34N 54°51' W 005°48'0 1.2
2020-Mar-27 16:29N 54°51' W 005°48'0 0.0
2020-Mar-27 15:35N 54°51' W 005°48'1515.0
2020-Mar-27 14:36N 54°58' W 005°26'6 2.1
2020-Mar-27 11:44N 54°60' W 005°15'2116.9
2020-Mar-27 10:31N 54°51' W 005°48'24 9.7
2020-Mar-27 08:00N 55°02' W 005°10'3 1.3
2020-Mar-27 05:34N 55°01' W 005°04'7 0.8
2020-Mar-26 21:11N 55°00' W 005°16'816.9
2020-Mar-26 20:42N 54°56' W 005°28'12 4.4
2020-Mar-26 17:53N 54°51' W 005°48'4 9.8
2020-Mar-26 17:28N 54°53' W 005°42'17 4.1
2020-Mar-26 13:15N 55°00' W 005°15'21 8.6
2020-Mar-26 10:46N 54°51' W 005°48'0 0.0
2020-Mar-26 09:58N 54°51' W 005°48'912.0
2020-Mar-26 09:11N 54°56' W 005°34'12 3.0
2020-Mar-26 05:13N 55°01' W 005°15'1318.0
2020-Mar-26 04:28N 54°55' W 005°36'8 7.8
2020-Mar-26 03:27N 54°51' W 005°48'4 0.6
2020-Mar-25 20:20N 54°53' W 005°42'  
Track history (hours):
 
Tides and Currents Weather Stations Pressure Air Temp Water Temp Dewpoint Dewpoint Depression Visibility Wind Speed Wind Dir Waves Ship Positions

European Causeway

Operator: P & O Irish Sea

Last reported at 2020-Apr-04 15:55 UTC. Time now 2020-Apr-05 05:51 UTC.
Position N 54°58' W 005°22'.

Length 145 m; draft 5.5 m.

Type: Passenger vessel. MMSI: 311027000.

Date/timePositionNaut miles runAvg speedWind from/ knotsBaromVisibWave heightAir tempDewpointWater temp
2020-Apr-04 15:55N 54°58' W 005°22'1617.5
2020-Apr-04 15:00N 54°51' W 005°48'0 0.1
2020-Apr-04 10:52N 54°51' W 005°48'713.6
2020-Apr-04 10:21N 54°55' W 005°38'818.3
2020-Apr-04 09:56N 54°58' W 005°25'15 1.6
2020-Apr-04 00:55N 54°51' W 005°48'7 1.3
2020-Apr-03 19:24N 54°54' W 005°37'14 4.4
2020-Apr-03 16:08N 55°00' W 005°15'13 4.1
2020-Apr-03 13:00N 54°55' W 005°35'3 1.7
2020-Apr-03 10:58N 54°54' W 005°41'5 1.0
2020-Apr-03 05:58N 54°51' W 005°48'0 0.0
2020-Apr-03 05:28N 54°51' W 005°48'0 0.0
2020-Apr-03 04:56N 54°51' W 005°48'2014.6
2020-Apr-03 03:33N 54°60' W 005°17'117.5
2020-Apr-03 03:30N 55°00' W 005°15'21 3.2
2020-Apr-02 20:53N 54°51' W 005°48'0 0.0
2020-Apr-02 15:30N 54°51' W 005°48'0 0.0
2020-Apr-02 13:06N 54°51' W 005°48'13 2.4
2020-Apr-02 07:39N 54°56' W 005°27'317.8
2020-Apr-02 07:29N 54°55' W 005°32'10 4.8
2020-Apr-02 05:23N 54°51' W 005°48'0 0.0
2020-Apr-01 22:56N 54°51' W 005°48'0 0.3
2020-Apr-01 22:29N 54°51' W 005°48'0 0.0
2020-Apr-01 21:26N 54°51' W 005°48'0 0.0
2020-Apr-01 21:00N 54°51' W 005°48'21 4.2
2020-Apr-01 16:10N 54°60' W 005°15'6 0.8
2020-Apr-01 07:44N 54°57' W 005°26'518.3
2020-Apr-01 07:27N 54°55' W 005°34'9 0.9
2020-Mar-31 21:44N 54°51' W 005°48'0 0.0
2020-Mar-31 20:49N 54°51' W 005°48'513.4
2020-Mar-31 20:27N 54°54' W 005°41'4 0.8
2020-Mar-31 15:34N 54°55' W 005°35'12 1.6
2020-Mar-31 08:03N 54°60' W 005°16'1318.5
2020-Mar-31 07:19N 54°54' W 005°37'7 8.7
2020-Mar-31 06:30N 54°51' W 005°48'0 0.0
2020-Mar-31 05:00N 54°51' W 005°48'610.0
2020-Mar-31 04:25N 54°54' W 005°39'0 0.1
2020-Mar-30 23:22N 54°54' W 005°40'6 2.2
2020-Mar-30 20:52N 54°51' W 005°48'9 2.0
2020-Mar-30 16:18N 54°55' W 005°34'9 4.8
2020-Mar-30 14:27N 54°51' W 005°48'12 2.7
2020-Mar-30 10:11N 54°56' W 005°30'11 5.8
2020-Mar-30 08:12N 54°51' W 005°48'21 5.4
2020-Mar-30 04:15N 55°00' W 005°14'21 8.6
2020-Mar-30 01:45N 54°51' W 005°48'0 0.0
2020-Mar-30 01:27N 54°51' W 005°48'20 3.9
2020-Mar-29 20:16N 55°00' W 005°16'2016.5
2020-Mar-29 19:02N 54°51' W 005°48'0 1.2
2020-Mar-29 19:00N 54°51' W 005°48'0 0.1
2020-Mar-29 17:53N 54°51' W 005°48'0 0.0
2020-Mar-29 17:28N 54°51' W 005°48'2115.7
2020-Mar-29 16:08N 55°00' W 005°15'12 3.7
2020-Mar-29 13:02N 54°54' W 005°32'915.6
2020-Mar-29 12:25N 54°51' W 005°48'0 0.0
2020-Mar-29 08:30N 54°51' W 005°48'11 0.9
2020-Mar-28 20:39N 54°55' W 005°31'4 0.3
2020-Mar-28 08:22N 54°54' W 005°38'6 3.4
2020-Mar-28 06:29N 54°51' W 005°48'0 0.0
2020-Mar-28 05:50N 54°51' W 005°48'15 3.0
2020-Mar-28 00:49N 54°57' W 005°24'8 2.3
2020-Mar-27 21:24N 54°55' W 005°37'7 1.4
2020-Mar-27 16:34N 54°51' W 005°48'0 1.2
2020-Mar-27 16:29N 54°51' W 005°48'0 0.0
2020-Mar-27 15:35N 54°51' W 005°48'1515.0
2020-Mar-27 14:36N 54°58' W 005°26'6 2.1
2020-Mar-27 11:44N 54°60' W 005°15'2116.9
2020-Mar-27 10:31N 54°51' W 005°48'24 9.7
2020-Mar-27 08:00N 55°02' W 005°10'3 1.3
2020-Mar-27 05:34N 55°01' W 005°04'7 0.8
2020-Mar-26 21:11N 55°00' W 005°16'816.9
2020-Mar-26 20:42N 54°56' W 005°28'12 4.4
2020-Mar-26 17:53N 54°51' W 005°48'4 9.8
2020-Mar-26 17:28N 54°53' W 005°42'17 4.1
2020-Mar-26 13:15N 55°00' W 005°15'21 8.6
2020-Mar-26 10:46N 54°51' W 005°48'0 0.0
2020-Mar-26 09:58N 54°51' W 005°48'912.0
2020-Mar-26 09:11N 54°56' W 005°34'12 3.0
2020-Mar-26 05:13N 55°01' W 005°15'1318.0
2020-Mar-26 04:28N 54°55' W 005°36'8 7.8
2020-Mar-26 03:27N 54°51' W 005°48'4 0.6
2020-Mar-25 20:20N 54°53' W 005°42'  

Dump ship's entire track history